Avalon School, Santa Catalina Island Weather observations

Data are for 10 minute period ending at time listed.
 Day   Time   Solar   Ave.   Ave.  Ave.  Vector    Max.   Stn.    Total
  of    of     Rad.   Air    Rel.  Wind   Wind     Wind   Baro.  Precip.
Year   Day            Temp.  Hum.  Speed  Dir.     Gust   Pres.         
2015   (PST)   W/m2    F      %     mph   deg.      mph    mb.     in.  
------------------------------------------------------------------------
  89    0:30    0.0    59   94.2     0    274.3     1.2    999.0   0.00  
  89    0:40    0.0    59   94.2     1    243.1     4.8    999.0   0.00  
  89    0:50    0.0    60   93.6     1    263.9     3.6    999.0   0.00  
  89    1:00    0.0    60   93.3     1    184.1     3.0    999.0   0.00  
  89    1:10    0.0    59   93.0     0     82.2     2.4    999.0   0.00  
  89    1:20    0.0    59   92.7     0    244.0     1.2    999.0   0.00  
  89    1:30    0.0    60   92.5     2    248.5     4.2    999.0   0.00  
  89    1:40    0.0    60   92.1     2    260.0     4.2    999.0   0.00  
  89    1:50    0.0    60   92.0     0      0.0     0.0    999.0   0.00  
  89    2:00    0.0    59   92.0     0      0.0     0.0    999.0   0.00  
  89    2:10    0.0    58   92.4     0    255.6     4.8    999.0   0.00  
  89    2:20    0.0    57   92.5     1    260.2     4.2    999.0   0.00  
  89    2:30    0.0    56   92.6     1    190.1     4.2    999.0   0.00  
  89    2:40    0.0    55   92.7     1    265.7     2.4    999.0   0.00  
  89    2:50    0.0    55   92.9     2    259.6     3.0    999.0   0.00  
  89    3:00    0.0    55   92.7     0    279.1     1.2    999.0   0.00  
  89    3:10    0.0    54   92.9     0      0.0     0.0    999.0   0.00  
  89    3:20    0.0    54   93.2     0      0.0     0.0    999.0   0.00  
  89    3:30    0.0    54   93.4     0      0.0     0.0    999.0   0.00  
  89    3:40    0.0    53   93.6     0      0.0     0.0    999.0   0.00  
  89    3:50    0.0    53   93.7     0      0.0     0.0    999.0   0.00  
  89    4:00    0.0    54   93.9     0      0.0     0.0    999.0   0.00  
  89    4:10    0.0    54   94.0     0      0.0     0.0    999.0   0.00  
  89    4:20    0.0    55   94.1     0      0.0     0.0    999.0   0.00  
  89    4:30    0.0    55   94.2     0      0.0     0.0    999.0   0.00  
  89    4:40    0.0    56   94.0     0      0.0     0.0    999.0   0.00  
  89    4:50    0.0    56   93.9     0      0.0     0.0    999.0   0.00  
  89    5:00    0.0    57   93.8     0    245.2     1.8    999.0   0.00  
  89    5:10    0.0    58   93.9     0    223.8     1.2    999.0   0.00  
  89    5:20    0.0    57   93.3     2    193.3     4.8    999.0   0.00  
  89    5:30    0.0    57   93.3     1    175.0     3.0    999.0   0.00  
  89    5:40    0.0    58   93.2     1    187.7     3.0    999.0   0.00  
  89    5:50    2.0    58   92.9     1    182.2     3.6    999.0   0.00  
  89    6:00    5.0    58   92.8     1    169.3     3.6    999.0   0.00  
  89    6:10   10.0    58   92.6     1    207.8     3.6    999.0   0.00  
  89    6:20   18.0    58   92.5     1    184.7     3.0    999.0   0.00  
  89    6:30   32.0    58   92.2     1    176.5     3.6    999.0   0.00  
  89    6:40   42.0    58   91.9     1    170.8     3.0    999.0   0.00  
  89    6:50   58.0    59   91.4     1    165.7     3.6    999.0   0.00  
  89    7:00   71.0    59   90.7     1    185.2     3.0    999.0   0.00  
  89    7:10   92.0    59   89.8     1    112.3     4.2    999.0   0.00  
  89    7:20  117.0    60   88.7     2    123.6     4.2    999.0   0.00  
  89    7:30  132.0    60   87.9     1    138.3     3.6    999.0   0.00  
  89    7:40  156.0    61   86.6     1     88.3     3.0    999.0   0.00  
  89    7:50  175.0    62   85.8     0    111.3     2.4    999.0   0.00  
  89    8:00  265.0    62   83.9     3    113.8     6.0    999.0   0.00  
  89    8:10  379.0    63   82.3     4     97.8     6.0    999.0   0.00  
  89    8:20  413.0    63   81.0     4     92.3     6.0    999.0   0.00  
  89    8:30  442.0    64   79.8     4    107.2     6.6    999.0   0.00  
  89    8:40  468.0    63   80.7     4     83.7     7.2    999.0   0.00  
  89    8:50  495.0    64   80.5     4     97.3     7.8    999.0   0.00  
  89    9:00  520.0    64   79.1     4     88.4     6.0    999.0   0.00  
  89    9:10  545.0    64   79.8     5    116.4     8.4    999.0   0.00  
  89    9:20  569.0    64   79.9     5     83.0     7.8    999.0   0.00  
  89    9:30  592.0    64   79.4     4     98.9     7.8    999.0   0.00  
  89    9:40  612.0    65   79.5     4     92.5     9.6    999.0   0.00  
  89    9:50  634.0    65   78.5     4    103.5     7.8    999.0   0.00  
  89   10:00  654.0    65   78.7     4     90.0     8.4    999.0   0.00  
  89   10:10  673.0    66   77.6     4     93.0     8.4    999.0   0.00  
  89   10:20  690.0    66   77.8     4     87.6     8.4    999.0   0.00  
  89   10:30  707.0    66   76.9     4     95.8     8.4    999.0   0.00  
  89   10:40  721.0    66   76.2     4     92.9     9.0    999.0   0.00  
  89   10:50  735.0    66   76.8     4     98.3     8.4    999.0   0.00  
  89   11:00  746.0    67   75.2     4    289.7     7.8    999.0   0.00  
  89   11:10  758.0    68   74.8     4    273.2     7.8    999.0   0.00  
  89   11:20  766.0    68   74.9     4    283.0     7.8    999.0   0.00  
  89   11:30  773.0    67   75.7     4    272.3     7.8    999.0   0.00  
  89   11:40  778.0    68   74.1     3    340.9     5.4    999.0   0.00  
  89   11:50  779.0    69   71.9     3    319.1     6.0    999.0   0.00  
  89   12:00  780.0    69   72.8     4    272.6     7.2    999.0   0.00  
  89   12:10  780.0    69   72.3     4    112.9     9.6    999.0   0.00  
  89   12:20  779.0    67   75.7     6     99.1    10.8    999.0   0.00  
  89   12:30  778.0    67   75.9     5    102.5     9.6    999.0   0.00  
  89   12:40  773.0    67   76.6     6     99.9     9.6    999.0   0.00  
  89   12:50  766.0    66   78.0     6    100.5    10.8    999.0   0.00  
  89   13:00  757.0    66   79.4     5     96.6     9.6    999.0   0.00  
  89   13:10  746.0    66   78.6     5    109.1     8.4    999.0   0.00  
  89   13:20  734.0    67   78.1     5     98.7     8.4    999.0   0.00  
  89   13:30  720.0    67   78.4     5    108.1     9.6    999.0   0.00  
  89   13:40  706.0    66   79.2     6    119.6    10.2    999.0   0.00  
  89   13:50  691.0    67   78.6     5    107.6     8.4    999.0   0.00  
  89   14:00  674.0    67   79.2     5     94.2    10.2    999.0   0.00  
  89   14:10  657.0    67   79.3     6     93.0    10.2    999.0   0.00  
  89   14:20  636.0    67   80.2     6     95.8    10.2    999.0   0.00  
  89   14:30  615.0    67   79.9     5     96.3     9.0    999.0   0.00  
  89   14:40  592.0    66   80.9     5     93.0    10.2    999.0   0.00  
  89   14:50  566.0    67   81.0     4     89.4     9.0    999.0   0.00  
  89   15:00  540.0    67   79.4     4    105.6     7.2    999.0   0.00  
  89   15:10  515.0    67   79.2     4     84.4     9.0    999.0   0.00  
  89   15:20  490.0    68   78.8     4     95.7     7.2    999.0   0.00  
  89   15:30  462.0    67   79.2     5    263.3     8.4    999.0   0.00  
  89   15:40  434.0    68   78.6     4    283.7     7.8    999.0   0.00  
  89   15:50  405.0    68   77.4     4    265.2     7.2    999.0   0.00  
  89   16:00  373.0    68   77.7     3    276.2     6.6    999.0   0.00  
  89   16:10  342.0    69   77.5     3    288.5     5.4    999.0   0.00  
  89   16:20  310.0    68   79.4     4    119.5     8.4    999.0   0.00  
  89   16:30  280.0    67   81.2     3    117.1     6.0    999.0   0.00  
  89   16:40  245.0    68   79.3     3    119.0     6.6    999.0   0.00  
  89   16:50  127.0    67   80.4     2    121.9     6.0    999.0   0.00  
  89   17:00   35.0    65   84.0     3    108.5     6.0    999.0   0.00  
  89   17:10   30.0    65   84.7     2    275.0     4.8    999.0   0.00  
  89   17:20   26.0    64   85.7     3    262.7     4.8    999.0   0.00  
  89   17:30   22.0    64   86.6     1    245.7     3.0    999.0   0.00  
  89   17:40   18.0    64   87.1     1    243.2     3.0    999.0   0.00  
  89   17:50   14.0    63   87.6     0    244.2     3.0    999.0   0.00  
  89   18:00   10.0    63   88.2     1    262.0     2.4    999.0   0.00  
  89   18:10    6.0    62   88.9     2    261.9     3.0    999.0   0.00  
  89   18:20    2.0    62   89.4     2    250.6     3.0    999.0   0.00  
  89   18:30    0.0    61   89.9     1    256.3     2.4    999.0   0.00  
  89   18:40    0.0    60   90.3     0    292.8     1.8    999.0   0.00  
  89   18:50    0.0    60   90.5     0    286.6     1.2    999.0   0.00  
  89   19:00    0.0    59   91.0     0      0.0     0.0    999.0   0.00  
  89   19:10    0.0    58   91.5     1    257.0     3.0    999.0   0.00  
  89   19:20    0.0    58   91.9     0      0.0     0.0    999.0   0.00  
  89   19:30    0.0    59   92.0     0      0.0     0.0    999.0   0.00  
  89   19:40    0.0    58   92.1     0      0.0     0.0    999.0   0.00  
  89   19:50    0.0    58   92.5     0      0.0     0.0    999.0   0.00  
  89   20:00    0.0    58   92.7     0      0.0     0.0    999.0   0.00  
  89   20:10    0.0    58   92.9     0      0.0     0.0    999.0   0.00  
  89   20:20    0.0    57   93.1     0      0.0     0.0    999.0   0.00  
  89   20:30    0.0    57   93.4     0      0.0     0.0    999.0   0.00  
  89   20:40    0.0    57   93.6     0      0.0     0.0    999.0   0.00  
  89   20:50    0.0    57   93.9     1    264.3     3.0    999.0   0.00  
  89   21:00    0.0    57   93.9     0      0.0     0.0    999.0   0.00  
  89   21:10    0.0    56   94.0     0      0.0     0.0    999.0   0.00  
  89   21:20    0.0    56   94.1     0      0.0     0.0    999.0   0.00  
  89   21:30    0.0    56   94.3     0      0.0     0.0    999.0   0.00  
  89   21:40    0.0    56   94.5     0      0.0     0.0    999.0   0.00  
  89   21:50    0.0    56   94.5     0      0.0     0.0    999.0   0.00  
  89   22:00    0.0    55   94.4     0      0.0     0.0    999.0   0.00  
  89   22:10    0.0    55   94.5     0      0.0     0.0    999.0   0.00  
  89   22:20    0.0    56   94.7     0      0.0     0.0    999.0   0.00  
  89   22:30    0.0    56   94.5     0     77.0     1.2    999.0   0.00  
  89   22:40    0.0    57   94.6     0      0.0     0.0    999.0   0.00  
  89   22:50    0.0    57   94.1     0      0.0     0.0    999.0   0.00  
  89   23:00    0.0    58   94.0     0      0.0     0.0    999.0   0.00  
  89   23:10    0.0    59   94.1     0    200.1     1.8    999.0   0.00  
  89   23:20    0.0    59   94.0     0      0.0     0.0    999.0   0.00  
  89   23:30    0.0    60   93.9     0    198.3     3.0    999.0   0.00  
  89   23:40    0.0    60   93.7     0    271.6     2.4    999.0   0.00  
  89   23:50    0.0    60   93.3     0    253.3     1.8    999.0   0.00  
  90    0:00    0.0    59   92.6     0      0.0     0.0    999.0   0.00  
  90    0:10    0.0    60   92.4     1    262.4     4.2    999.0   0.00  
  90    0:20    0.0    60   91.9     0      0.0     0.0    999.0   0.00  

Return to Avalon School graphs page.


Western Regional Climate Center,wrcc@dri.edu